createdAt,value
2022-12-03T00:00:19.915Z,13.00
2022-12-03T00:02:46.410Z,10.30
2022-12-03T00:05:12.994Z,12.00
2022-12-03T00:07:39.605Z,10.70
2022-12-03T00:10:07.380Z,11.70
2022-12-03T00:12:34.039Z,14.10
2022-12-03T00:15:00.433Z,12.50
2022-12-03T00:17:26.793Z,13.00
2022-12-03T00:19:53.177Z,9.40
2022-12-03T00:22:19.590Z,9.90
2022-12-03T00:24:46.079Z,8.10
2022-12-03T00:27:12.409Z,8.60
2022-12-03T00:29:38.795Z,8.90
2022-12-03T00:32:05.644Z,11.50
2022-12-03T00:34:32.070Z,9.80
2022-12-03T00:36:58.498Z,10.80
2022-12-03T00:39:24.970Z,13.40
2022-12-03T00:41:51.300Z,13.40
2022-12-03T00:44:17.786Z,12.80
2022-12-03T00:46:44.410Z,11.30
2022-12-03T00:49:10.943Z,10.20
2022-12-03T00:51:37.456Z,11.50
2022-12-03T00:54:03.942Z,11.30
2022-12-03T00:56:30.311Z,10.90
2022-12-03T00:58:56.725Z,11.90
2022-12-03T01:01:23.274Z,9.30
2022-12-03T01:03:49.701Z,10.00
2022-12-03T01:06:16.036Z,11.60
2022-12-03T01:08:42.410Z,12.30
2022-12-03T01:11:28.810Z,14.10
2022-12-03T01:13:55.312Z,14.30
2022-12-03T01:16:21.749Z,12.20
2022-12-03T01:18:48.209Z,13.80
2022-12-03T01:21:14.642Z,12.60
2022-12-03T01:23:40.998Z,11.20
2022-12-03T01:26:07.411Z,11.20
2022-12-03T01:28:33.755Z,12.10
2022-12-03T01:31:18.615Z,13.00
2022-12-03T01:33:44.992Z,10.30
2022-12-03T01:36:11.321Z,9.20
2022-12-03T01:38:37.794Z,13.30
2022-12-03T01:41:10.095Z,11.70
2022-12-03T01:43:38.454Z,13.00
2022-12-03T01:46:05.038Z,14.00
2022-12-03T01:48:35.989Z,11.90
2022-12-03T01:51:02.421Z,12.80
2022-12-03T01:53:28.948Z,11.30
2022-12-03T01:55:55.650Z,11.30
2022-12-03T01:58:28.894Z,11.80
2022-12-03T02:00:59.009Z,11.40
2022-12-03T02:03:26.529Z,13.60
2022-12-03T02:05:53.554Z,11.40
2022-12-03T02:08:32.288Z,9.10
2022-12-03T02:11:36.482Z,9.10
2022-12-03T02:14:11.851Z,13.30
2022-12-03T02:16:41.905Z,15.20
2022-12-03T02:19:26.851Z,12.80
2022-12-03T02:22:16.464Z,14.30
2022-12-03T02:25:18.211Z,13.90
2022-12-03T02:27:45.693Z,12.20
2022-12-03T02:30:17.790Z,11.90
2022-12-03T02:32:44.416Z,10.30
2022-12-03T02:35:17.609Z,9.90
2022-12-03T02:37:47.154Z,12.00
2022-12-03T02:40:23.485Z,13.60
2022-12-03T02:42:56.479Z,14.60
2022-12-03T02:45:32.197Z,15.70
2022-12-03T02:48:03.767Z,16.80
2022-12-03T02:50:34.840Z,14.70
2022-12-03T02:53:07.123Z,14.70
2022-12-03T02:55:37.428Z,11.50
2022-12-03T02:58:05.431Z,13.90
2022-12-03T03:00:33.383Z,12.10
2022-12-03T03:03:02.561Z,14.60
2022-12-03T03:05:29.272Z,11.00
2022-12-03T03:07:58.355Z,14.50
2022-12-03T03:10:26.636Z,12.80
2022-12-03T03:12:55.409Z,14.50
2022-12-03T03:15:24.307Z,13.90
2022-12-03T03:17:51.866Z,15.20
2022-12-03T03:20:19.252Z,15.90
2022-12-03T03:22:45.703Z,13.30
2022-12-03T03:25:16.993Z,14.90
2022-12-03T03:27:45.645Z,14.20
2022-12-03T03:30:14.142Z,10.70
2022-12-03T03:32:42.571Z,11.60
2022-12-03T03:35:11.443Z,13.10
2022-12-03T03:37:38.887Z,10.60
2022-12-03T03:40:06.682Z,14.10
2022-12-03T03:42:33.887Z,12.50
2022-12-03T03:45:00.714Z,11.40
2022-12-03T03:47:27.319Z,15.50
2022-12-03T03:49:54.156Z,16.40
2022-12-03T03:52:20.811Z,16.70
2022-12-03T03:54:47.572Z,15.20
2022-12-03T03:57:14.404Z,14.30
2022-12-03T03:59:41.400Z,12.90
2022-12-03T04:02:18.885Z,9.90
2022-12-03T04:04:45.529Z,11.00
2022-12-03T04:07:11.968Z,13.00
2022-12-03T04:09:38.397Z,15.40
2022-12-03T04:12:23.787Z,10.60
2022-12-03T04:14:50.292Z,11.00
2022-12-03T04:17:16.711Z,13.80
2022-12-03T04:19:43.131Z,14.60
2022-12-03T04:22:28.104Z,16.00
2022-12-03T04:25:14.485Z,14.00
2022-12-03T04:27:59.418Z,14.00
2022-12-03T04:30:25.952Z,13.20
2022-12-03T04:33:11.118Z,14.20
2022-12-03T04:35:43.267Z,16.50
2022-12-03T04:38:12.026Z,14.00
2022-12-03T04:40:58.589Z,11.80
2022-12-03T04:43:25.448Z,11.20
2022-12-03T04:45:51.996Z,10.40
2022-12-03T04:48:18.803Z,9.80
2022-12-03T04:50:45.415Z,14.40
2022-12-03T04:53:13.015Z,14.90
2022-12-03T04:55:39.435Z,14.30
2022-12-03T04:58:06.282Z,14.10
2022-12-03T05:00:32.680Z,12.70
2022-12-03T05:02:59.185Z,10.00
2022-12-03T05:05:25.696Z,12.70
2022-12-03T05:07:52.111Z,12.90
2022-12-03T05:10:18.657Z,13.60
2022-12-03T05:12:45.067Z,11.80
2022-12-03T05:15:11.598Z,12.90
2022-12-03T05:17:38.057Z,13.10
2022-12-03T05:20:24.303Z,11.40
2022-12-03T05:22:50.829Z,15.40
2022-12-03T05:25:17.350Z,15.70
2022-12-03T05:27:43.688Z,15.50
2022-12-03T05:30:10.724Z,15.90
2022-12-03T05:32:38.391Z,14.40
2022-12-03T05:35:05.308Z,14.10
2022-12-03T05:37:31.733Z,14.50
2022-12-03T05:39:58.099Z,13.30
2022-12-03T05:42:43.300Z,12.30
2022-12-03T05:45:10.563Z,11.80
2022-12-03T05:47:37.215Z,12.40
2022-12-03T05:50:04.111Z,13.80
2022-12-03T05:52:30.558Z,10.20
2022-12-03T05:54:56.933Z,14.50
2022-12-03T05:57:23.359Z,16.10
2022-12-03T05:59:49.821Z,16.80
2022-12-03T06:02:16.452Z,13.70
2022-12-03T06:04:42.919Z,15.80
2022-12-03T06:07:13.724Z,14.40
2022-12-03T06:09:40.686Z,14.80
2022-12-03T06:12:08.642Z,15.30
2022-12-03T06:14:35.689Z,16.10
2022-12-03T06:17:03.149Z,14.60
2022-12-03T06:19:29.569Z,14.20
2022-12-03T06:21:56.007Z,13.20
2022-12-03T06:24:22.512Z,13.20
2022-12-03T06:26:48.963Z,14.30
2022-12-03T06:29:15.375Z,15.60
2022-12-03T06:31:42.002Z,15.20
2022-12-03T06:34:08.479Z,14.90
2022-12-03T06:36:34.971Z,15.30
2022-12-03T06:39:01.419Z,15.20
2022-12-03T06:41:27.825Z,13.20
2022-12-03T06:43:54.315Z,14.30
2022-12-03T06:46:20.850Z,13.80
2022-12-03T06:48:47.287Z,13.70
2022-12-03T06:51:13.633Z,14.30
2022-12-03T06:53:40.032Z,11.40
2022-12-03T06:56:06.787Z,14.10
2022-12-03T06:58:33.229Z,15.10
2022-12-03T07:00:59.592Z,15.40
2022-12-03T07:03:26.143Z,17.80
2022-12-03T07:05:52.599Z,15.90
2022-12-03T07:08:19.080Z,16.00
2022-12-03T07:10:45.453Z,15.40
2022-12-03T07:13:11.824Z,15.10
2022-12-03T07:15:38.251Z,14.20
2022-12-03T07:18:04.812Z,14.30
2022-12-03T07:20:31.158Z,14.90
2022-12-03T07:22:57.639Z,15.50
2022-12-03T07:25:24.094Z,14.00
2022-12-03T07:27:50.823Z,13.20
2022-12-03T07:30:17.594Z,13.90
2022-12-03T07:32:43.959Z,16.50
2022-12-03T07:35:10.453Z,16.50
2022-12-03T07:37:37.471Z,15.50
2022-12-03T07:40:05.626Z,16.00
2022-12-03T07:42:32.124Z,16.40
2022-12-03T07:44:58.578Z,16.30
2022-12-03T07:47:24.967Z,17.40
2022-12-03T07:49:51.417Z,15.80
2022-12-03T07:52:17.820Z,15.60
2022-12-03T07:54:44.287Z,14.80
2022-12-03T07:57:10.696Z,13.90
2022-12-03T07:59:37.117Z,13.70
2022-12-03T08:02:04.040Z,13.70
2022-12-03T08:04:30.551Z,13.60
2022-12-03T08:06:56.976Z,16.00
2022-12-03T08:09:23.481Z,16.60
2022-12-03T08:11:50.040Z,15.20
2022-12-03T08:14:20.027Z,14.10
2022-12-03T08:16:48.266Z,16.50
2022-12-03T08:19:17.492Z,14.80
2022-12-03T08:21:45.094Z,14.50
2022-12-03T08:24:21.395Z,16.20
2022-12-03T08:26:49.071Z,13.50
2022-12-03T08:29:19.574Z,13.40
2022-12-03T08:31:52.296Z,17.80
2022-12-03T08:34:22.500Z,16.70
2022-12-03T08:37:05.757Z,16.00
2022-12-03T08:39:44.467Z,15.20
2022-12-03T08:42:40.692Z,14.20
2022-12-03T08:45:28.781Z,13.10
2022-12-03T08:48:18.840Z,13.00
2022-12-03T08:50:46.156Z,12.90
2022-12-03T08:53:31.396Z,12.90
2022-12-03T08:56:02.017Z,15.60
2022-12-03T08:58:38.697Z,17.40
2022-12-03T09:01:11.149Z,16.90
2022-12-03T09:03:41.420Z,15.40
2022-12-03T09:06:07.912Z,15.20
2022-12-03T09:08:34.286Z,11.90
2022-12-03T09:11:01.213Z,14.30
2022-12-03T09:13:27.619Z,14.60
2022-12-03T09:15:54.030Z,13.60
2022-12-03T09:18:20.378Z,15.90
2022-12-03T09:20:46.767Z,15.30
2022-12-03T09:23:13.195Z,17.10
2022-12-03T09:25:39.613Z,16.90
2022-12-03T09:28:06.315Z,17.70
2022-12-03T09:30:32.857Z,17.90
2022-12-03T09:33:00.138Z,18.10
2022-12-03T09:35:27.939Z,14.30
2022-12-03T09:37:54.461Z,13.10
2022-12-03T09:40:22.011Z,13.90
2022-12-03T09:42:49.496Z,15.50
2022-12-03T09:45:17.294Z,16.20
2022-12-03T09:47:47.726Z,15.30
2022-12-03T09:50:27.034Z,13.60
2022-12-03T09:52:58.542Z,15.80
2022-12-03T09:55:28.102Z,14.90
2022-12-03T09:57:57.540Z,16.00
2022-12-03T10:00:29.353Z,16.50
2022-12-03T10:03:04.412Z,16.90
2022-12-03T10:05:30.941Z,17.10
2022-12-03T10:08:06.826Z,14.30
2022-12-03T10:10:35.166Z,16.00
2022-12-03T10:13:02.435Z,15.90
2022-12-03T10:15:29.369Z,16.10
2022-12-03T10:17:57.594Z,14.50
2022-12-03T10:20:25.765Z,16.00
2022-12-03T10:22:52.171Z,16.60
2022-12-03T10:25:22.360Z,18.00
2022-12-03T10:28:05.212Z,16.90
2022-12-03T10:30:32.017Z,15.60
2022-12-03T10:33:02.454Z,15.90
2022-12-03T10:35:41.165Z,18.80
2022-12-03T10:38:22.172Z,18.20
2022-12-03T10:40:50.174Z,19.40
2022-12-03T10:43:19.600Z,18.20
2022-12-03T10:46:10.278Z,19.40
2022-12-03T10:48:36.775Z,16.40
2022-12-03T10:51:21.177Z,17.00
2022-12-03T10:53:50.555Z,17.70
2022-12-03T10:56:27.494Z,18.00
2022-12-03T10:58:55.060Z,18.70
2022-12-03T11:01:25.462Z,18.30
2022-12-03T11:03:56.546Z,18.90
2022-12-03T11:06:23.475Z,18.90
2022-12-03T11:08:58.415Z,18.50
2022-12-03T11:11:30.219Z,21.70
2022-12-03T11:13:59.736Z,19.20
2022-12-03T11:16:41.544Z,15.80
2022-12-03T11:19:41.467Z,17.70
2022-12-03T11:22:10.663Z,18.20
2022-12-03T11:24:39.857Z,17.30
2022-12-03T11:27:18.574Z,18.10
2022-12-03T11:29:59.762Z,19.40
2022-12-03T11:32:55.151Z,20.10
2022-12-03T11:35:24.593Z,18.70
2022-12-03T11:37:51.675Z,18.70
2022-12-03T11:40:18.076Z,21.40
2022-12-03T11:42:47.675Z,16.50
2022-12-03T11:45:38.242Z,18.20
2022-12-03T11:48:15.277Z,16.80
2022-12-03T11:50:52.717Z,17.30
2022-12-03T11:53:23.551Z,17.30
2022-12-03T11:56:10.879Z,19.50
2022-12-03T11:58:43.565Z,17.60
2022-12-03T12:01:10.038Z,20.40
2022-12-03T12:03:50.351Z,20.60
2022-12-03T12:06:21.168Z,19.00
2022-12-03T12:08:59.279Z,20.10
2022-12-03T12:11:42.051Z,17.20
2022-12-03T12:14:12.184Z,17.50
2022-12-03T12:16:53.704Z,15.70
2022-12-03T12:19:51.066Z,16.70
2022-12-03T12:22:26.623Z,19.90
2022-12-03T12:25:33.925Z,20.00
2022-12-03T12:28:00.359Z,19.40
2022-12-03T12:30:26.751Z,20.30
2022-12-03T12:33:23.520Z,31.20
2022-12-03T12:35:51.043Z,18.90
2022-12-03T12:38:22.640Z,18.50
2022-12-03T12:40:50.651Z,19.60
2022-12-03T12:43:24.347Z,20.40
2022-12-03T12:46:13.585Z,23.10
2022-12-03T12:48:48.681Z,25.10
2022-12-03T12:51:20.805Z,22.10
2022-12-03T12:53:47.931Z,21.30
2022-12-03T12:56:30.105Z,19.70
2022-12-03T12:59:13.008Z,22.70
2022-12-03T13:01:41.189Z,23.60
2022-12-03T13:04:23.424Z,21.10
2022-12-03T13:06:54.133Z,18.00
2022-12-03T13:09:26.956Z,22.20
2022-12-03T13:12:03.916Z,23.60
2022-12-03T13:14:35.816Z,24.30
2022-12-03T13:17:15.176Z,21.80
2022-12-03T13:20:01.944Z,21.90
2022-12-03T13:22:29.012Z,25.80
2022-12-03T13:24:59.353Z,26.60
2022-12-03T13:27:32.673Z,24.60
2022-12-03T13:30:18.355Z,24.10
2022-12-03T13:32:44.795Z,22.10
2022-12-03T13:35:31.735Z,21.10
2022-12-03T13:37:59.160Z,20.00
2022-12-03T13:40:34.949Z,18.80
2022-12-03T13:43:11.963Z,18.50
2022-12-03T13:45:49.938Z,20.40
2022-12-03T13:48:31.569Z,19.70
2022-12-03T13:51:14.177Z,19.80
2022-12-03T13:53:41.024Z,18.60
2022-12-03T13:56:28.746Z,21.20
2022-12-03T13:58:57.931Z,23.60
2022-12-03T14:01:24.399Z,22.70
2022-12-03T14:03:50.927Z,18.10
2022-12-03T14:06:17.391Z,23.40
2022-12-03T14:08:44.455Z,23.60
2022-12-03T14:11:34.268Z,24.80
2022-12-03T14:14:00.969Z,23.40
2022-12-03T14:16:27.552Z,23.00
2022-12-03T14:18:54.039Z,22.50
2022-12-03T14:21:21.336Z,25.40
2022-12-03T14:23:47.733Z,33.80
2022-12-03T14:26:14.300Z,28.90
2022-12-03T14:28:40.754Z,26.40
2022-12-03T14:31:07.207Z,29.40
2022-12-03T14:33:33.928Z,34.60
2022-12-03T14:36:00.347Z,31.80
2022-12-03T14:38:26.949Z,31.00
2022-12-03T14:40:53.365Z,28.80
2022-12-03T14:43:19.759Z,22.50
2022-12-03T14:45:46.213Z,20.10
2022-12-03T14:48:12.712Z,20.30
2022-12-03T14:50:39.259Z,21.40
2022-12-03T14:53:05.733Z,23.40
2022-12-03T14:55:32.503Z,17.40
2022-12-03T14:57:58.911Z,18.30
2022-12-03T15:00:25.642Z,18.40
2022-12-03T15:02:52.226Z,20.90
2022-12-03T15:05:26.414Z,18.50
2022-12-03T15:07:54.925Z,19.00
2022-12-03T15:10:21.324Z,20.60
2022-12-03T15:12:47.723Z,23.70
2022-12-03T15:15:14.102Z,27.40
2022-12-03T15:17:40.638Z,25.50
2022-12-03T15:20:07.878Z,25.20
2022-12-03T15:22:34.317Z,24.50
2022-12-03T15:25:02.509Z,24.20
2022-12-03T15:27:28.910Z,25.10
2022-12-03T15:29:55.740Z,25.60
2022-12-03T15:32:22.300Z,26.70
2022-12-03T15:34:51.268Z,24.70
2022-12-03T15:37:17.756Z,25.40
2022-12-03T15:39:48.449Z,20.10
2022-12-03T15:42:15.292Z,20.20
2022-12-03T15:44:41.668Z,17.30
2022-12-03T15:47:08.013Z,17.90
2022-12-03T15:49:34.456Z,17.20
2022-12-03T15:52:00.880Z,14.90
2022-12-03T15:54:27.247Z,20.30
2022-12-03T15:56:57.190Z,19.50
2022-12-03T15:59:23.963Z,14.80
2022-12-03T16:01:50.418Z,16.50
2022-12-03T16:04:16.932Z,18.50
2022-12-03T16:06:43.400Z,19.80
2022-12-03T16:09:09.858Z,20.40
2022-12-03T16:11:36.258Z,19.20
2022-12-03T16:14:02.772Z,21.20
2022-12-03T16:16:29.250Z,22.50
2022-12-03T16:18:55.869Z,22.90
2022-12-03T16:21:26.708Z,21.20
2022-12-03T16:23:54.501Z,19.10
2022-12-03T16:26:21.955Z,21.90
2022-12-03T16:28:48.562Z,21.10
2022-12-03T16:31:15.105Z,22.50
2022-12-03T16:33:41.595Z,21.40
2022-12-03T16:36:08.601Z,21.50
2022-12-03T16:38:35.157Z,19.70
2022-12-03T16:41:02.126Z,21.30
2022-12-03T16:43:28.534Z,20.70
2022-12-03T16:46:24.365Z,19.90
2022-12-03T16:48:56.409Z,19.00
2022-12-03T16:51:22.814Z,20.20
2022-12-03T16:53:49.498Z,19.20
2022-12-03T16:56:16.109Z,20.60
2022-12-03T16:58:43.088Z,17.80
2022-12-03T17:01:10.644Z,13.70
2022-12-03T17:03:37.492Z,18.60
2022-12-03T17:06:05.143Z,18.70
2022-12-03T17:08:31.944Z,19.60
2022-12-03T17:10:58.481Z,20.80
2022-12-03T17:13:25.052Z,23.70
2022-12-03T17:15:51.864Z,23.70
2022-12-03T17:18:18.465Z,23.80
2022-12-03T17:20:44.954Z,22.90
2022-12-03T17:23:12.282Z,20.60
2022-12-03T17:25:38.823Z,23.60
2022-12-03T17:28:05.345Z,22.50
2022-12-03T17:30:31.820Z,23.50
2022-12-03T17:32:58.319Z,19.90
2022-12-03T17:35:25.108Z,23.30
2022-12-03T17:37:51.567Z,25.00
2022-12-03T17:40:18.206Z,24.20
2022-12-03T17:42:44.590Z,22.10
2022-12-03T17:45:12.330Z,20.30
2022-12-03T17:47:38.954Z,20.30
2022-12-03T17:50:07.283Z,19.10
2022-12-03T17:52:33.684Z,20.90
2022-12-03T17:55:11.819Z,19.10
2022-12-03T17:57:40.865Z,16.90
2022-12-03T18:00:08.343Z,16.70
2022-12-03T18:02:35.056Z,15.00
2022-12-03T18:05:01.921Z,19.50
2022-12-03T18:07:28.370Z,21.40
2022-12-03T18:09:55.033Z,24.50
2022-12-03T18:12:21.840Z,23.50
2022-12-03T18:14:48.249Z,25.40
2022-12-03T18:17:14.611Z,20.10
2022-12-03T18:19:41.083Z,16.90
2022-12-03T18:22:07.746Z,19.80
2022-12-03T18:24:34.629Z,16.20
2022-12-03T18:27:01.073Z,17.60
2022-12-03T18:29:27.495Z,17.30
2022-12-03T18:31:53.915Z,18.70
2022-12-03T18:34:20.443Z,18.40
2022-12-03T18:36:49.140Z,19.90
2022-12-03T18:39:26.311Z,18.40
2022-12-03T18:41:54.049Z,21.00
2022-12-03T18:44:21.167Z,17.40
2022-12-03T18:46:55.182Z,18.10
2022-12-03T18:49:22.431Z,18.10
2022-12-03T18:51:52.102Z,20.40
2022-12-03T18:54:22.407Z,17.70
2022-12-03T18:56:48.850Z,19.40
2022-12-03T18:59:15.228Z,19.20
2022-12-03T19:01:41.728Z,18.40
2022-12-03T19:04:10.361Z,19.00
2022-12-03T19:06:36.887Z,18.90
2022-12-03T19:09:03.659Z,21.70
2022-12-03T19:11:30.423Z,22.10
2022-12-03T19:13:59.064Z,22.00
2022-12-03T19:16:26.029Z,19.80
2022-12-03T19:18:53.920Z,17.90
2022-12-03T19:21:23.025Z,20.90
2022-12-03T19:24:16.462Z,21.50
2022-12-03T19:26:36.064Z,21.40
2022-12-03T19:29:02.950Z,16.60
2022-12-03T19:31:33.122Z,19.40
2022-12-03T19:33:59.934Z,20.60
2022-12-03T19:36:30.665Z,19.60
2022-12-03T19:38:59.724Z,19.30
2022-12-03T19:41:30.419Z,19.10
2022-12-03T19:43:58.364Z,20.10
2022-12-03T19:46:31.119Z,19.70
2022-12-03T19:48:57.954Z,17.10
2022-12-03T19:51:38.770Z,19.30
2022-12-03T19:54:08.266Z,18.00
2022-12-03T19:56:34.920Z,18.80
2022-12-03T19:59:01.469Z,16.60
2022-12-03T20:01:32.261Z,15.10
2022-12-03T20:04:02.323Z,16.40
2022-12-03T20:06:32.674Z,17.30
2022-12-03T20:09:11.835Z,15.60
2022-12-03T20:11:41.297Z,9.90
2022-12-03T20:14:13.059Z,16.40
2022-12-03T20:16:39.925Z,18.50
2022-12-03T20:19:10.055Z,16.90
2022-12-03T20:21:38.012Z,15.80
2022-12-03T20:24:05.996Z,17.90
2022-12-03T20:26:32.736Z,18.20
2022-12-03T20:28:59.705Z,18.60
2022-12-03T20:31:30.697Z,18.50
2022-12-03T20:34:01.253Z,19.90
2022-12-03T20:36:30.434Z,18.20
2022-12-03T20:39:00.082Z,18.20
2022-12-03T20:41:26.955Z,15.00
2022-12-03T20:43:54.510Z,19.30
2022-12-03T20:46:27.511Z,19.00
2022-12-03T20:48:55.197Z,18.70
2022-12-03T20:51:26.637Z,18.60
2022-12-03T20:53:54.185Z,15.80
2022-12-03T20:56:25.907Z,19.40
2022-12-03T20:58:53.563Z,15.60
2022-12-03T21:01:29.249Z,16.60
2022-12-03T21:03:57.362Z,18.20
2022-12-03T21:06:26.806Z,13.70
2022-12-03T21:08:54.912Z,16.50
2022-12-03T21:11:25.651Z,17.50
2022-12-03T21:13:53.909Z,18.40
2022-12-03T21:16:45.349Z,18.50
2022-12-03T21:19:10.962Z,15.10
2022-12-03T21:21:37.356Z,13.00
2022-12-03T21:24:04.088Z,16.50
2022-12-03T21:26:30.590Z,18.40
2022-12-03T21:28:56.943Z,16.50
2022-12-03T21:31:26.615Z,14.20
2022-12-03T21:33:55.415Z,17.50
2022-12-03T21:36:23.887Z,17.80
2022-12-03T21:38:50.891Z,19.60
2022-12-03T21:41:17.667Z,17.60
2022-12-03T21:43:44.768Z,16.60
2022-12-03T21:47:09.265Z,17.00
2022-12-03T21:49:01.730Z,14.60
2022-12-03T21:51:28.184Z,16.70
2022-12-03T21:53:54.690Z,14.50
2022-12-03T21:56:21.172Z,15.90
2022-12-03T21:58:47.687Z,17.90
2022-12-03T22:01:21.902Z,19.30
2022-12-03T22:03:49.370Z,13.90
2022-12-03T22:06:16.558Z,19.50
2022-12-03T22:08:43.768Z,16.10
2022-12-03T22:11:24.974Z,15.50
2022-12-03T22:13:51.587Z,15.30
2022-12-03T22:16:21.690Z,17.60
2022-12-03T22:18:48.975Z,18.60
2022-12-03T22:21:19.291Z,15.70
2022-12-03T22:23:46.465Z,14.50
2022-12-03T22:26:16.611Z,16.50
2022-12-03T22:28:45.721Z,16.10
2022-12-03T22:31:13.776Z,14.80
2022-12-03T22:33:40.591Z,18.10
2022-12-03T22:36:18.055Z,16.90
2022-12-03T22:38:47.266Z,19.00
2022-12-03T22:41:14.347Z,14.20
2022-12-03T22:43:40.936Z,14.80
2022-12-03T22:46:10.870Z,18.10
2022-12-03T22:48:38.162Z,13.20
2022-12-03T22:51:12.366Z,18.10
2022-12-03T22:53:38.811Z,16.90
2022-12-03T22:56:05.512Z,16.20
2022-12-03T22:58:32.064Z,18.40
2022-12-03T23:01:02.595Z,15.40
2022-12-03T23:03:30.090Z,18.60
2022-12-03T23:05:56.670Z,17.50
2022-12-03T23:08:23.539Z,18.60
2022-12-03T23:10:52.720Z,18.50
2022-12-03T23:13:20.196Z,19.70
2022-12-03T23:15:51.005Z,16.80
2022-12-03T23:18:19.774Z,16.00
2022-12-03T23:20:50.115Z,13.80
2022-12-03T23:23:18.332Z,16.70
2022-12-03T23:25:56.086Z,15.00
2022-12-03T23:28:22.503Z,15.70
2022-12-03T23:30:48.974Z,14.90
2022-12-03T23:33:15.430Z,17.50
2022-12-03T23:35:41.838Z,16.00
2022-12-03T23:38:08.238Z,13.20
2022-12-03T23:40:35.065Z,16.50
2022-12-03T23:43:01.543Z,12.70
2022-12-03T23:45:27.930Z,17.00
2022-12-03T23:47:58.175Z,17.80
2022-12-03T23:50:26.111Z,15.40
2022-12-03T23:52:52.774Z,15.40
2022-12-03T23:55:19.480Z,14.80
2022-12-03T23:57:46.265Z,14.70
